Time;durP1;ratioP1;P1;durP2;ratioP2;P2;SDS_P1;SDS_P2;PMS_P1;PMS_P2;Temp;Humidity;BMP_temperature;BMP_pressure;BME280_temperature;BME280_humidity;BME280_pressure;Samples;Min_cycle;Max_cycle;Signal;HPM_P1;HPM_P2
2021/07/29 00:03:46;;;;;;;0.00;0.00;;;;;;;;;;10442934;28;20489;-23
2021/07/29 00:09:06;;;;;;;0.08;0.08;;;;;;;;;;10450002;28;20045;-23
2021/07/29 00:14:11;;;;;;;0.00;0.00;;;;;;;;;;10447964;28;20055;-23
2021/07/29 00:19:14;;;;;;;0.03;0.00;;;;;;;;;;10440712;28;20057;-23
2021/07/29 00:24:16;;;;;;;0.38;0.00;;;;;;;;;;10441648;28;20057;-22
2021/07/29 00:29:20;;;;;;;0.03;0.00;;;;;;;;;;10443835;28;20486;-23
2021/07/29 00:34:23;;;;;;;0.00;0.00;;;;;;;;;;10462441;28;20369;-23
2021/07/29 00:39:25;;;;;;;0.00;0.00;;;;;;;;;;10468170;28;20064;-23
2021/07/29 00:44:30;;;;;;;0.00;0.00;;;;;;;;;;10457676;28;20048;-22
2021/07/29 00:49:33;;;;;;;0.00;0.00;;;;;;;;;;10464946;28;20043;-23
2021/07/29 00:54:36;;;;;;;0.00;0.00;;;;;;;;;;10460437;28;20045;-23
2021/07/29 00:59:40;;;;;;;0.17;0.10;;;;;;;;;;10468188;28;20841;-22
2021/07/29 01:04:44;;;;;;;0.00;0.00;;;;;;;;;;10465511;28;20512;-23
2021/07/29 01:09:47;;;;;;;0.10;0.10;;;;;;;;;;10463563;28;20509;-23
2021/07/29 01:14:51;;;;;;;0.00;0.00;;;;;;;;;;10457416;28;20040;-24
2021/07/29 01:19:54;;;;;;;0.05;0.05;;;;;;;;;;10455526;28;20470;-23
2021/07/29 01:24:58;;;;;;;0.00;0.00;;;;;;;;;;10446242;28;20051;-22
2021/07/29 01:30:01;;;;;;;0.10;0.10;;;;;;;;;;10449787;28;20474;-23
2021/07/29 01:35:04;;;;;;;0.00;0.00;;;;;;;;;;10453992;28;20044;-23
2021/07/29 01:40:09;;;;;;;0.00;0.00;;;;;;;;;;10452416;28;20494;-23
2021/07/29 01:45:12;;;;;;;0.03;0.03;;;;;;;;;;10446771;28;20087;-23
2021/07/29 01:50:15;;;;;;;0.05;0.05;;;;;;;;;;10450641;28;20044;-23
2021/07/29 01:55:19;;;;;;;0.03;0.03;;;;;;;;;;10443846;28;20049;-23
2021/07/29 02:00:22;;;;;;;0.00;0.00;;;;;;;;;;10440871;28;20068;-23
2021/07/29 02:05:25;;;;;;;0.00;0.00;;;;;;;;;;10442971;28;20048;-23
2021/07/29 02:10:29;;;;;;;0.00;0.00;;;;;;;;;;10441586;28;20857;-23
2021/07/29 02:15:32;;;;;;;0.80;0.00;;;;;;;;;;10440954;28;20794;-23
2021/07/29 02:20:34;;;;;;;0.00;0.00;;;;;;;;;;10439354;28;20486;-23
2021/07/29 02:25:39;;;;;;;0.00;0.00;;;;;;;;;;10438384;28;20049;-23
2021/07/29 02:30:42;;;;;;;0.00;0.00;;;;;;;;;;10439673;28;20172;-23
2021/07/29 02:35:48;;;;;;;0.00;0.00;;;;;;;;;;10440797;28;20049;-23
2021/07/29 02:40:52;;;;;;;0.00;0.00;;;;;;;;;;10450693;28;20063;-23
2021/07/29 02:45:55;;;;;;;0.10;0.10;;;;;;;;;;10462189;28;20075;-23
2021/07/29 02:50:57;;;;;;;0.15;0.10;;;;;;;;;;10456997;28;20045;-23
2021/07/29 02:56:02;;;;;;;0.10;0.10;;;;;;;;;;10468053;28;20044;-23
2021/07/29 03:01:05;;;;;;;0.10;0.10;;;;;;;;;;10453242;28;20061;-23
2021/07/29 03:06:08;;;;;;;0.10;0.10;;;;;;;;;;10459335;28;20052;-23
2021/07/29 03:11:12;;;;;;;0.20;0.00;;;;;;;;;;10452509;28;20052;-20
2021/07/29 03:16:15;;;;;;;0.00;0.00;;;;;;;;;;10439784;28;20049;-21
2021/07/29 03:21:18;;;;;;;0.10;0.10;;;;;;;;;;10462630;28;20044;-20
2021/07/29 03:26:23;;;;;;;0.15;0.10;;;;;;;;;;10454637;28;20051;-20
2021/07/29 03:31:25;;;;;;;0.00;0.00;;;;;;;;;;10452525;28;20052;-20
2021/07/29 03:36:28;;;;;;;0.32;0.10;;;;;;;;;;10445523;28;20048;-20
2021/07/29 03:41:32;;;;;;;0.10;0.10;;;;;;;;;;10449651;28;20036;-21
2021/07/29 03:46:35;;;;;;;0.00;0.00;;;;;;;;;;10443186;28;20152;-20
2021/07/29 03:51:38;;;;;;;0.00;0.00;;;;;;;;;;10440337;28;20053;-21
2021/07/29 03:56:43;;;;;;;0.10;0.10;;;;;;;;;;10453022;28;20584;-20
2021/07/29 04:01:46;;;;;;;0.30;0.10;;;;;;;;;;10486561;28;20043;-21
2021/07/29 04:06:49;;;;;;;0.00;0.00;;;;;;;;;;10482561;28;20520;-21
2021/07/29 04:11:53;;;;;;;0.00;0.00;;;;;;;;;;10483629;28;20055;-22
2021/07/29 04:16:56;;;;;;;0.03;0.03;;;;;;;;;;10480798;28;20051;-20
2021/07/29 04:21:59;;;;;;;0.10;0.10;;;;;;;;;;10480072;28;20048;-21
2021/07/29 04:27:04;;;;;;;0.00;0.00;;;;;;;;;;10478052;28;20059;-20
2021/07/29 04:32:07;;;;;;;0.00;0.00;;;;;;;;;;10481213;28;20445;-20
2021/07/29 04:37:10;;;;;;;0.08;0.00;;;;;;;;;;10477914;28;20040;-20
2021/07/29 04:42:14;;;;;;;0.10;0.10;;;;;;;;;;10476328;28;20048;-20
2021/07/29 04:47:17;;;;;;;0.00;0.00;;;;;;;;;;10479973;28;20051;-21
2021/07/29 04:52:20;;;;;;;0.00;0.00;;;;;;;;;;10498495;28;20046;-20
2021/07/29 04:57:24;;;;;;;0.00;0.00;;;;;;;;;;10516461;28;20080;-20
2021/07/29 05:02:26;;;;;;;0.20;0.10;;;;;;;;;;10499477;28;20135;-21
2021/07/29 05:07:29;;;;;;;0.00;0.00;;;;;;;;;;10509094;28;21313;-21
2021/07/29 05:12:34;;;;;;;0.00;0.00;;;;;;;;;;10505270;28;20114;-20
2021/07/29 05:17:36;;;;;;;0.00;0.00;;;;;;;;;;10510624;28;20054;-20
2021/07/29 05:22:39;;;;;;;0.20;0.00;;;;;;;;;;10503788;28;20064;-20
2021/07/29 05:27:43;;;;;;;0.00;0.00;;;;;;;;;;10505761;28;20036;-20
2021/07/29 05:32:49;;;;;;;0.10;0.10;;;;;;;;;;10500046;28;20169;-20
2021/07/29 05:37:52;;;;;;;0.13;0.00;;;;;;;;;;10499326;28;20047;-20
2021/07/29 05:42:56;;;;;;;0.47;0.00;;;;;;;;;;10496827;28;20048;-21
2021/07/29 05:47:59;;;;;;;0.00;0.00;;;;;;;;;;10495196;28;20052;-20
2021/07/29 05:53:02;;;;;;;0.00;0.00;;;;;;;;;;10495603;28;20072;-20
2021/07/29 05:58:06;;;;;;;0.00;0.00;;;;;;;;;;10494262;28;20497;-21
2021/07/29 06:03:08;;;;;;;0.00;0.00;;;;;;;;;;10489551;28;20052;-21
2021/07/29 06:08:12;;;;;;;0.00;0.00;;;;;;;;;;10498229;28;20084;-20
2021/07/29 06:13:16;;;;;;;0.00;0.00;;;;;;;;;;10488384;28;20056;-21
2021/07/29 06:18:18;;;;;;;0.00;0.00;;;;;;;;;;10491906;28;20050;-21
2021/07/29 06:23:21;;;;;;;0.03;0.03;;;;;;;;;;10488697;28;20065;-20
2021/07/29 06:28:31;;;;;;;0.03;0.03;;;;;;;;;;10487459;28;20485;-20
2021/07/29 06:33:34;;;;;;;0.00;0.00;;;;;;;;;;10484462;28;20055;-21
2021/07/29 06:38:38;;;;;;;0.00;0.00;;;;;;;;;;10484591;28;20048;-21
2021/07/29 06:43:42;;;;;;;0.00;0.00;;;;;;;;;;10482910;28;20498;-21
2021/07/29 06:48:45;;;;;;;0.00;0.00;;;;;;;;;;10479090;28;20370;-20
2021/07/29 06:53:48;;;;;;;0.05;0.00;;;;;;;;;;10479725;28;20036;-20
2021/07/29 06:58:52;;;;;;;0.05;0.05;;;;;;;;;;10482589;28;20462;-21
2021/07/29 07:03:54;;;;;;;0.00;0.00;;;;;;;;;;10476589;28;20049;-21
2021/07/29 07:08:58;;;;;;;0.00;0.00;;;;;;;;;;10491592;28;20271;-21
2021/07/29 07:14:05;;;;;;;0.00;0.00;;;;;;;;;;10495323;28;20047;-21
2021/07/29 07:19:08;;;;;;;0.08;0.08;;;;;;;;;;10503560;28;20520;-20
2021/07/29 07:24:10;;;;;;;0.00;0.00;;;;;;;;;;10495895;28;20057;-20
2021/07/29 07:29:14;;;;;;;0.00;0.00;;;;;;;;;;10505826;28;20041;-21
2021/07/29 07:34:17;;;;;;;0.10;0.10;;;;;;;;;;10504573;28;20043;-20
2021/07/29 07:39:20;;;;;;;0.00;0.00;;;;;;;;;;10492793;28;20097;-20
2021/07/29 07:44:24;;;;;;;0.00;0.00;;;;;;;;;;10492519;28;20420;-21
2021/07/29 07:49:26;;;;;;;0.10;0.10;;;;;;;;;;10494348;28;20040;-21
2021/07/29 07:54:29;;;;;;;0.00;0.00;;;;;;;;;;10487867;28;20047;-21
2021/07/29 07:59:37;;;;;;;0.00;0.00;;;;;;;;;;10497172;28;20557;-21
2021/07/29 08:04:39;;;;;;;0.57;0.00;;;;;;;;;;10487049;28;20044;-21
2021/07/29 08:09:42;;;;;;;0.25;0.08;;;;;;;;;;10487720;28;20048;-20
2021/07/29 08:14:46;;;;;;;0.00;0.00;;;;;;;;;;10491308;28;20098;-21
2021/07/29 08:19:49;;;;;;;0.05;0.00;;;;;;;;;;10491946;28;20051;-20
2021/07/29 08:24:51;;;;;;;0.00;0.00;;;;;;;;;;10487724;28;20048;-21
2021/07/29 08:29:55;;;;;;;0.10;0.00;;;;;;;;;;10500196;28;20045;-21
2021/07/29 08:34:58;;;;;;;0.15;0.00;;;;;;;;;;10495402;28;20051;-21
2021/07/29 08:40:01;;;;;;;0.70;0.05;;;;;;;;;;10494325;28;20045;-21
2021/07/29 08:45:05;;;;;;;0.00;0.00;;;;;;;;;;10491685;28;20100;-20
2021/07/29 08:50:08;;;;;;;0.10;0.00;;;;;;;;;;10491319;28;20044;-21
2021/07/29 08:55:12;;;;;;;0.10;0.00;;;;;;;;;;10492804;28;20070;-20
2021/07/29 09:00:17;;;;;;;0.00;0.00;;;;;;;;;;10492880;28;20051;-21
2021/07/29 09:05:21;;;;;;;0.00;0.00;;;;;;;;;;10487932;28;20048;-21
2021/07/29 09:10:25;;;;;;;0.08;0.00;;;;;;;;;;10488099;28;20584;-21
2021/07/29 09:15:29;;;;;;;0.00;0.00;;;;;;;;;;10481739;28;20749;-21
2021/07/29 09:20:32;;;;;;;0.00;0.00;;;;;;;;;;10482948;28;20053;-20
2021/07/29 09:25:34;;;;;;;0.00;0.00;;;;;;;;;;10484415;28;20131;-21
2021/07/29 09:30:38;;;;;;;0.05;0.00;;;;;;;;;;10499973;28;20067;-21
2021/07/29 09:35:42;;;;;;;0.20;0.10;;;;;;;;;;10503020;28;20504;-21
2021/07/29 09:40:46;;;;;;;0.40;0.00;;;;;;;;;;10495606;28;20051;-21
2021/07/29 09:45:51;;;;;;;0.00;0.00;;;;;;;;;;10501281;28;20058;-21
2021/07/29 09:50:55;;;;;;;0.00;0.00;;;;;;;;;;10497615;28;20115;-21
2021/07/29 09:55:58;;;;;;;0.00;0.00;;;;;;;;;;10497308;28;20044;-22
2021/07/29 10:01:03;;;;;;;0.00;0.00;;;;;;;;;;10491740;28;20039;-21
2021/07/29 10:06:07;;;;;;;0.00;0.00;;;;;;;;;;10494092;28;20048;-21
2021/07/29 10:11:12;;;;;;;0.00;0.00;;;;;;;;;;10490642;28;20050;-21
2021/07/29 10:16:18;;;;;;;0.22;0.00;;;;;;;;;;10491028;28;20054;-21
2021/07/29 10:21:21;;;;;;;0.10;0.10;;;;;;;;;;10492001;28;20114;-21
2021/07/29 10:26:24;;;;;;;0.00;0.00;;;;;;;;;;10488355;28;20408;-20
2021/07/29 10:31:47;;;;;;;0.65;0.08;;;;;;;;;;10491685;28;20040;-21
2021/07/29 10:36:50;;;;;;;0.00;0.00;;;;;;;;;;10493339;28;20044;-21
2021/07/29 10:41:53;;;;;;;0.00;0.00;;;;;;;;;;10491229;28;20052;-20
2021/07/29 10:47:01;;;;;;;0.10;0.00;;;;;;;;;;10485609;28;20044;-21
2021/07/29 10:52:07;;;;;;;0.10;0.00;;;;;;;;;;10484220;28;20140;-21
2021/07/29 10:57:10;;;;;;;0.00;0.00;;;;;;;;;;10487464;28;21142;-21
2021/07/29 11:02:18;;;;;;;0.00;0.00;;;;;;;;;;10484252;28;20043;-21
2021/07/29 11:07:21;;;;;;;0.00;0.00;;;;;;;;;;10485001;28;20101;-21
2021/07/29 11:12:23;;;;;;;0.20;0.00;;;;;;;;;;10480828;28;20041;-21
2021/07/29 11:17:28;;;;;;;0.00;0.00;;;;;;;;;;10480459;28;20052;-21
2021/07/29 11:22:30;;;;;;;0.00;0.00;;;;;;;;;;10480144;28;20049;-21
2021/07/29 11:27:34;;;;;;;0.00;0.00;;;;;;;;;;10479654;28;20493;-21
2021/07/29 11:32:39;;;;;;;0.03;0.00;;;;;;;;;;10483613;28;20505;-21
2021/07/29 11:37:43;;;;;;;0.00;0.00;;;;;;;;;;10505938;28;20047;-22
2021/07/29 11:42:46;;;;;;;0.00;0.00;;;;;;;;;;10496418;28;20043;-21
2021/07/29 11:47:50;;;;;;;0.68;0.00;;;;;;;;;;10504535;28;20049;-21
2021/07/29 11:52:53;;;;;;;0.00;0.00;;;;;;;;;;10505052;28;20040;-22
2021/07/29 11:57:56;;;;;;;0.00;0.00;;;;;;;;;;10506768;28;20048;-22
2021/07/29 12:03:00;;;;;;;0.00;0.00;;;;;;;;;;10490520;28;20055;-21
2021/07/29 12:08:04;;;;;;;0.00;0.00;;;;;;;;;;10498499;28;20048;-21
2021/07/29 12:13:08;;;;;;;0.17;0.00;;;;;;;;;;10494946;28;20051;-21
2021/07/29 12:18:16;;;;;;;0.00;0.00;;;;;;;;;;10489909;28;20378;-21
2021/07/29 12:23:18;;;;;;;0.10;0.00;;;;;;;;;;10493425;28;20068;-21
2021/07/29 12:28:36;;;;;;;0.00;0.00;;;;;;;;;;10499577;28;20040;-21
2021/07/29 12:33:47;;;;;;;0.00;0.00;;;;;;;;;;10502493;28;20049;-21
2021/07/29 12:38:57;;;;;;;0.00;0.00;;;;;;;;;;10484789;28;20048;-21
2021/07/29 12:44:09;;;;;;;0.00;0.00;;;;;;;;;;10493159;28;20033;-21
2021/07/29 12:49:14;;;;;;;0.00;0.00;;;;;;;;;;10488262;28;20060;-21
2021/07/29 12:54:17;;;;;;;0.10;0.05;;;;;;;;;;10486073;28;20054;-21
2021/07/29 12:59:20;;;;;;;0.00;0.00;;;;;;;;;;10487822;28;20134;-21
2021/07/29 13:04:24;;;;;;;0.10;0.00;;;;;;;;;;10490256;28;20040;-21
2021/07/29 13:09:27;;;;;;;0.00;0.00;;;;;;;;;;10486604;28;20544;-21
2021/07/29 13:14:30;;;;;;;0.00;0.00;;;;;;;;;;10489196;28;20143;-22
2021/07/29 13:19:34;;;;;;;0.35;0.00;;;;;;;;;;10492651;28;20177;-21
2021/07/29 13:24:37;;;;;;;0.00;0.00;;;;;;;;;;10486872;28;20052;-22
2021/07/29 13:29:39;;;;;;;0.00;0.00;;;;;;;;;;10487060;28;20055;-22
2021/07/29 13:34:45;;;;;;;0.20;0.00;;;;;;;;;;10485977;28;20055;-22
2021/07/29 13:39:47;;;;;;;0.00;0.00;;;;;;;;;;10484288;28;20048;-21
2021/07/29 13:44:57;;;;;;;0.10;0.00;;;;;;;;;;10488646;28;20041;-21
2021/07/29 13:50:01;;;;;;;0.00;0.00;;;;;;;;;;10479868;28;20497;-21
2021/07/29 13:55:04;;;;;;;0.00;0.00;;;;;;;;;;10486765;28;20044;-21
2021/07/29 14:00:08;;;;;;;0.17;0.17;;;;;;;;;;10499653;28;20467;-21
2021/07/29 14:05:12;;;;;;;0.00;0.00;;;;;;;;;;10504604;28;20041;-21
2021/07/29 14:10:15;;;;;;;0.00;0.00;;;;;;;;;;10496923;28;20496;-22
2021/07/29 14:15:18;;;;;;;0.00;0.00;;;;;;;;;;10495709;28;20041;-21
2021/07/29 14:20:25;;;;;;;0.00;0.00;;;;;;;;;;10507226;28;20063;-21
2021/07/29 14:25:29;;;;;;;0.22;0.00;;;;;;;;;;10487048;28;20037;-22
2021/07/29 14:30:32;;;;;;;0.00;0.00;;;;;;;;;;10499708;28;20056;-21
2021/07/29 14:35:36;;;;;;;0.03;0.00;;;;;;;;;;10500672;28;20043;-21
2021/07/29 14:40:39;;;;;;;0.28;0.08;;;;;;;;;;10495401;28;20055;-22
2021/07/29 14:51:13;;;;;;;0.00;0.00;;;;;;;;;;10497590;28;20054;-22
2021/07/29 14:56:20;;;;;;;0.00;0.00;;;;;;;;;;10494579;28;20044;-21
2021/07/29 16:10:54;;;;;;;0.00;0.00;;;;;;;;;;10475295;28;20818;-25
2021/07/29 16:15:58;;;;;;;0.00;0.00;;;;;;;;;;10490042;28;20040;-25
2021/07/29 16:21:02;;;;;;;0.00;0.00;;;;;;;;;;10489611;28;20409;-24
2021/07/29 16:26:05;;;;;;;0.00;0.00;;;;;;;;;;10493109;28;20586;-24
2021/07/29 16:31:08;;;;;;;0.00;0.00;;;;;;;;;;10500559;28;20048;-25
2021/07/29 16:36:14;;;;;;;0.00;0.00;;;;;;;;;;10494808;28;20188;-25
2021/07/29 16:41:18;;;;;;;0.00;0.00;;;;;;;;;;10477896;28;20516;-26
2021/07/29 16:46:21;;;;;;;0.00;0.00;;;;;;;;;;10494392;28;20504;-24
2021/07/29 16:51:23;;;;;;;1.63;0.00;;;;;;;;;;10493709;28;20143;-25
2021/07/29 16:56:27;;;;;;;0.10;0.00;;;;;;;;;;10500693;28;20041;-25
2021/07/29 17:01:31;;;;;;;0.32;0.00;;;;;;;;;;10493769;28;20409;-26
2021/07/29 17:06:34;;;;;;;0.00;0.00;;;;;;;;;;10500728;28;20067;-25
2021/07/29 17:11:38;;;;;;;0.00;0.00;;;;;;;;;;10499106;28;20049;-27
2021/07/29 17:16:42;;;;;;;0.20;0.00;;;;;;;;;;10491113;28;20413;-25
2021/07/29 17:21:45;;;;;;;0.00;0.00;;;;;;;;;;10490097;28;20060;-24
2021/07/29 17:26:49;;;;;;;0.00;0.00;;;;;;;;;;10489986;28;20082;-25
2021/07/29 17:31:52;;;;;;;0.00;0.00;;;;;;;;;;10486309;28;20048;-25
2021/07/29 17:36:54;;;;;;;0.10;0.00;;;;;;;;;;10493966;28;20059;-25
2021/07/29 17:41:58;;;;;;;0.00;0.00;;;;;;;;;;10489378;28;20047;-24
2021/07/29 17:47:01;;;;;;;0.13;0.10;;;;;;;;;;10485029;28;20481;-25
2021/07/29 17:52:04;;;;;;;0.00;0.00;;;;;;;;;;10482949;28;20452;-25
2021/07/29 17:57:08;;;;;;;0.00;0.00;;;;;;;;;;10481059;28;20048;-24
2021/07/29 18:02:11;;;;;;;0.00;0.00;;;;;;;;;;10479516;28;20053;-25
2021/07/29 18:07:15;;;;;;;0.00;0.00;;;;;;;;;;10483667;28;20441;-24
2021/07/29 18:12:19;;;;;;;0.00;0.00;;;;;;;;;;10482704;28;20048;-25
2021/07/29 18:17:22;;;;;;;0.00;0.00;;;;;;;;;;10481990;28;20048;-25
2021/07/29 18:22:26;;;;;;;0.00;0.00;;;;;;;;;;10477738;28;20110;-25
2021/07/29 18:27:31;;;;;;;0.00;0.00;;;;;;;;;;10481696;28;20063;-26
2021/07/29 18:32:34;;;;;;;0.00;0.00;;;;;;;;;;10502271;28;20044;-25
2021/07/29 18:37:38;;;;;;;0.05;0.00;;;;;;;;;;10513454;28;20068;-25
2021/07/29 18:42:42;;;;;;;0.00;0.00;;;;;;;;;;10496339;28;20036;-25
2021/07/29 18:47:45;;;;;;;0.00;0.00;;;;;;;;;;10503566;28;20052;-25
2021/07/29 18:52:48;;;;;;;0.22;0.00;;;;;;;;;;10497704;28;20039;-24
2021/07/29 18:57:52;;;;;;;0.00;0.00;;;;;;;;;;10499037;28;20844;-24
2021/07/29 19:02:55;;;;;;;0.00;0.00;;;;;;;;;;10484452;28;20048;-25
2021/07/29 19:07:58;;;;;;;0.00;0.00;;;;;;;;;;10494347;28;20040;-24
2021/07/29 19:13:02;;;;;;;0.00;0.00;;;;;;;;;;10498421;28;20102;-24
2021/07/29 19:18:05;;;;;;;0.00;0.00;;;;;;;;;;10492009;28;20048;-24
2021/07/29 19:23:07;;;;;;;0.00;0.00;;;;;;;;;;10490405;28;20136;-25
2021/07/29 19:28:11;;;;;;;0.00;0.00;;;;;;;;;;10490535;28;20045;-24
2021/07/29 19:33:14;;;;;;;0.00;0.00;;;;;;;;;;10488007;28;20496;-24
2021/07/29 19:38:17;;;;;;;0.00;0.00;;;;;;;;;;10487945;28;20049;-25
2021/07/29 19:43:21;;;;;;;0.85;0.00;;;;;;;;;;10487139;28;20036;-25
2021/07/29 19:48:24;;;;;;;0.00;0.00;;;;;;;;;;10487592;28;20044;-26
2021/07/29 19:53:27;;;;;;;0.00;0.00;;;;;;;;;;10481443;28;20040;-24
2021/07/29 19:58:31;;;;;;;0.00;0.00;;;;;;;;;;10488004;28;20044;-25
2021/07/29 20:03:34;;;;;;;0.00;0.00;;;;;;;;;;10484700;28;20044;-25
2021/07/29 20:08:37;;;;;;;0.00;0.00;;;;;;;;;;10497065;28;20500;-25
2021/07/29 20:13:41;;;;;;;0.00;0.00;;;;;;;;;;10475756;28;20052;-25
2021/07/29 20:18:44;;;;;;;0.00;0.00;;;;;;;;;;10472888;28;20053;-25
2021/07/29 20:23:46;;;;;;;0.00;0.00;;;;;;;;;;10485835;28;20482;-26
2021/07/29 20:28:51;;;;;;;0.00;0.00;;;;;;;;;;10482159;28;20043;-25
2021/07/29 20:33:54;;;;;;;0.00;0.00;;;;;;;;;;10498915;28;20067;-26
2021/07/29 20:38:57;;;;;;;0.00;0.00;;;;;;;;;;10513165;28;20040;-26
2021/07/29 20:44:01;;;;;;;0.00;0.00;;;;;;;;;;10491212;28;20498;-24
2021/07/29 20:49:04;;;;;;;0.00;0.00;;;;;;;;;;10517919;28;20102;-26
2021/07/29 20:54:07;;;;;;;0.03;0.03;;;;;;;;;;10505149;28;20040;-25
2021/07/29 20:59:11;;;;;;;0.00;0.00;;;;;;;;;;10506166;28;20040;-25
2021/07/29 21:04:13;;;;;;;0.00;0.00;;;;;;;;;;10496579;28;20048;-25
2021/07/29 21:09:16;;;;;;;0.10;0.10;;;;;;;;;;10508398;28;20051;-26
2021/07/29 21:14:20;;;;;;;0.00;0.00;;;;;;;;;;10493070;28;20040;-25
2021/07/29 21:19:23;;;;;;;0.00;0.00;;;;;;;;;;10500573;28;20048;-25
2021/07/29 21:24:25;;;;;;;0.00;0.00;;;;;;;;;;10497767;28;20060;-25
2021/07/29 21:29:29;;;;;;;0.00;0.00;;;;;;;;;;10490941;28;20052;-24
2021/07/29 21:34:32;;;;;;;0.05;0.00;;;;;;;;;;10492348;28;20051;-26
2021/07/29 21:39:35;;;;;;;0.00;0.00;;;;;;;;;;10496529;28;20139;-25
2021/07/29 21:44:39;;;;;;;0.00;0.00;;;;;;;;;;10488789;28;20041;-26
2021/07/29 21:49:42;;;;;;;0.00;0.00;;;;;;;;;;10492865;28;20044;-25
2021/07/29 21:54:44;;;;;;;0.10;0.10;;;;;;;;;;10488926;28;20049;-26
2021/07/29 21:59:48;;;;;;;0.20;0.10;;;;;;;;;;10485369;28;20079;-25
2021/07/29 22:04:51;;;;;;;0.50;0.03;;;;;;;;;;10491053;28;20135;-25
2021/07/29 22:09:54;;;;;;;0.00;0.00;;;;;;;;;;10489513;28;20794;-24
2021/07/29 22:14:58;;;;;;;0.00;0.00;;;;;;;;;;10484267;28;20076;-25
2021/07/29 22:20:00;;;;;;;0.00;0.00;;;;;;;;;;10486292;28;20044;-25
2021/07/29 22:25:03;;;;;;;0.00;0.00;;;;;;;;;;10481978;28;20047;-25
2021/07/29 22:30:07;;;;;;;0.00;0.00;;;;;;;;;;10481306;28;20083;-24
2021/07/29 22:35:11;;;;;;;0.00;0.00;;;;;;;;;;10475355;28;20040;-24
2021/07/29 22:40:13;;;;;;;0.00;0.00;;;;;;;;;;10497856;28;20048;-25
2021/07/29 22:45:17;;;;;;;0.00;0.00;;;;;;;;;;10505010;28;20036;-25
2021/07/29 22:50:20;;;;;;;0.15;0.08;;;;;;;;;;10503028;28;20068;-25
2021/07/29 22:55:23;;;;;;;0.00;0.00;;;;;;;;;;10502760;28;20036;-25
2021/07/29 23:00:27;;;;;;;0.00;0.00;;;;;;;;;;10499073;28;20048;-25
2021/07/29 23:05:29;;;;;;;0.00;0.00;;;;;;;;;;10489506;28;20413;-25
2021/07/29 23:10:32;;;;;;;0.00;0.00;;;;;;;;;;10498958;28;20059;-25
2021/07/29 23:15:36;;;;;;;0.08;0.03;;;;;;;;;;10495785;28;20040;-25
2021/07/29 23:20:39;;;;;;;0.00;0.00;;;;;;;;;;10496411;28;20197;-25
2021/07/29 23:31:04;;;;;;;0.00;0.00;;;;;;;;;;10487864;28;20075;-26
2021/07/29 23:36:07;;;;;;;0.00;0.00;;;;;;;;;;10490723;28;20045;-24
2021/07/29 23:41:10;;;;;;;0.40;0.00;;;;;;;;;;10492202;28;20060;-24
2021/07/29 23:46:14;;;;;;;0.00;0.00;;;;;;;;;;10484694;28;20476;-24
2021/07/29 23:51:17;;;;;;;0.00;0.00;;;;;;;;;;10487330;28;20047;-25
2021/07/29 23:56:20;;;;;;;0.00;0.00;;;;;;;;;;10486951;28;20154;-25
